Time;durP1;ratioP1;P1;durP2;ratioP2;P2;SDS_P1;SDS_P2;PMS_P1;PMS_P2;Temp;Humidity;BMP_temperature;BMP_pressure;BME280_temperature;BME280_humidity;BME280_pressure;Samples;Min_cycle;Max_cycle;Signal;HPM_P1;HPM_P2
2021/10/04 00:02:02;;;;;;;7.78;2.10;;;;;;;;;;4991612;28;20779;-77
2021/10/04 00:04:29;;;;;;;7.93;2.20;;;;;;;;;;4993394;28;20121;-77
2021/10/04 00:06:56;;;;;;;11.45;2.92;;;;;;;;;;4993725;28;20152;-76
2021/10/04 00:09:22;;;;;;;8.68;2.17;;;;;;;;;;5009537;28;20061;-77
2021/10/04 00:11:49;;;;;;;9.35;1.73;;;;;;;;;;4990576;28;20510;-77
2021/10/04 00:14:15;;;;;;;10.25;2.40;;;;;;;;;;4993900;28;20169;-77
2021/10/04 00:16:42;;;;;;;10.10;2.20;;;;;;;;;;4992802;28;20050;-77
2021/10/04 00:19:08;;;;;;;7.88;2.20;;;;;;;;;;4992581;28;20056;-77
2021/10/04 00:21:34;;;;;;;11.85;1.98;;;;;;;;;;4991727;28;20168;-76
2021/10/04 00:24:00;;;;;;;10.00;1.77;;;;;;;;;;4989351;28;20120;-77
2021/10/04 00:26:26;;;;;;;11.52;2.47;;;;;;;;;;4993496;28;20053;-77
2021/10/04 00:28:53;;;;;;;9.95;2.90;;;;;;;;;;5008205;28;20084;-77
2021/10/04 00:31:19;;;;;;;11.93;2.03;;;;;;;;;;4987760;28;20129;-77
2021/10/04 00:33:45;;;;;;;7.05;1.83;;;;;;;;;;4990034;28;20053;-77
2021/10/04 00:36:11;;;;;;;9.27;2.40;;;;;;;;;;5004626;28;20060;-77
2021/10/04 00:38:37;;;;;;;11.85;2.40;;;;;;;;;;5001983;28;20092;-77
2021/10/04 00:41:03;;;;;;;9.80;1.95;;;;;;;;;;4996962;28;20038;-77
2021/10/04 00:43:30;;;;;;;10.48;1.98;;;;;;;;;;4985946;28;20056;-77
2021/10/04 00:45:56;;;;;;;11.07;1.73;;;;;;;;;;4985459;28;20378;-77
2021/10/04 00:48:23;;;;;;;7.20;2.13;;;;;;;;;;4989813;28;20578;-77
2021/10/04 00:50:49;;;;;;;11.63;2.30;;;;;;;;;;5011549;28;20050;-77
2021/10/04 00:53:16;;;;;;;6.15;1.90;;;;;;;;;;4993438;28;20050;-77
2021/10/04 00:55:42;;;;;;;12.25;2.30;;;;;;;;;;4993663;28;20088;-77
2021/10/04 00:58:08;;;;;;;10.25;1.48;;;;;;;;;;5009837;28;20129;-77
2021/10/04 01:00:34;;;;;;;8.02;1.90;;;;;;;;;;4992579;28;20454;-76
2021/10/04 01:03:01;;;;;;;10.88;2.17;;;;;;;;;;4993755;28;20042;-77
2021/10/04 01:05:27;;;;;;;7.63;1.70;;;;;;;;;;4989154;28;20050;-77
2021/10/04 01:07:53;;;;;;;13.77;2.28;;;;;;;;;;4993133;28;20581;-77
2021/10/04 01:10:19;;;;;;;10.30;2.22;;;;;;;;;;4993385;28;20382;-77
2021/10/04 01:12:47;;;;;;;9.20;2.00;;;;;;;;;;5010269;28;20088;-77
2021/10/04 01:15:14;;;;;;;12.20;2.35;;;;;;;;;;4992617;28;20136;-77
2021/10/04 01:17:40;;;;;;;10.43;2.35;;;;;;;;;;4991848;28;20050;-77
2021/10/04 01:20:10;;;;;;;10.38;2.28;;;;;;;;;;4991366;28;20371;-77
2021/10/04 01:22:36;;;;;;;9.65;2.17;;;;;;;;;;4993553;28;20052;-77
2021/10/04 01:25:03;;;;;;;12.23;1.88;;;;;;;;;;5010785;28;20405;-77
2021/10/04 01:27:29;;;;;;;13.32;2.28;;;;;;;;;;4987220;28;20077;-77
2021/10/04 01:29:55;;;;;;;11.77;2.33;;;;;;;;;;4989417;28;20072;-76
2021/10/04 01:32:21;;;;;;;10.95;2.45;;;;;;;;;;4990887;28;20048;-77
2021/10/04 01:34:48;;;;;;;13.68;2.28;;;;;;;;;;5010494;28;20045;-76
2021/10/04 01:37:14;;;;;;;10.50;1.92;;;;;;;;;;5010824;28;20070;-77
2021/10/04 01:39:40;;;;;;;8.15;1.90;;;;;;;;;;5010620;28;20402;-76
2021/10/04 01:42:06;;;;;;;10.10;2.28;;;;;;;;;;5010202;28;20046;-77
2021/10/04 01:44:32;;;;;;;9.65;2.05;;;;;;;;;;4990437;28;20061;-77
2021/10/04 01:46:58;;;;;;;10.48;2.88;;;;;;;;;;4989497;28;20046;-77
2021/10/04 01:49:24;;;;;;;7.80;3.33;;;;;;;;;;4986506;28;20049;-77
2021/10/04 01:51:51;;;;;;;12.55;2.47;;;;;;;;;;4983499;28;20065;-77
2021/10/04 01:54:17;;;;;;;8.82;2.58;;;;;;;;;;4990668;28;20049;-77
2021/10/04 01:56:43;;;;;;;8.52;2.30;;;;;;;;;;4980608;28;20053;-77
2021/10/04 01:59:09;;;;;;;12.73;2.55;;;;;;;;;;5007366;28;20482;-77
2021/10/04 02:01:35;;;;;;;11.60;2.40;;;;;;;;;;5010119;28;20045;-77
2021/10/04 02:04:02;;;;;;;8.73;2.33;;;;;;;;;;5010550;28;20046;-77
2021/10/04 02:06:28;;;;;;;12.05;2.50;;;;;;;;;;5007481;28;20050;-76
2021/10/04 02:08:54;;;;;;;6.40;1.88;;;;;;;;;;5008432;28;20125;-77
2021/10/04 02:11:20;;;;;;;8.40;2.42;;;;;;;;;;5011637;28;20144;-77
2021/10/04 02:13:46;;;;;;;8.00;2.42;;;;;;;;;;5013074;28;20046;-77
2021/10/04 02:16:13;;;;;;;8.63;2.30;;;;;;;;;;5012498;28;20375;-77
2021/10/04 02:18:39;;;;;;;11.15;3.85;;;;;;;;;;5012247;28;20508;-77
2021/10/04 02:21:05;;;;;;;10.65;2.33;;;;;;;;;;5013278;28;20048;-77
2021/10/04 02:23:31;;;;;;;8.70;2.20;;;;;;;;;;5010581;28;20192;-77
2021/10/04 02:25:59;;;;;;;12.27;2.42;;;;;;;;;;5012517;28;20049;-76
2021/10/04 02:28:25;;;;;;;9.95;2.53;;;;;;;;;;5011733;28;20421;-77
2021/10/04 02:30:53;;;;;;;9.07;2.70;;;;;;;;;;5010002;28;20097;-77
2021/10/04 02:33:19;;;;;;;9.07;2.40;;;;;;;;;;5014103;28;20347;-77
2021/10/04 02:35:46;;;;;;;11.88;2.45;;;;;;;;;;5014023;28;20049;-76
2021/10/04 02:38:13;;;;;;;9.43;2.42;;;;;;;;;;5011843;28;20136;-77
2021/10/04 02:40:39;;;;;;;11.15;3.65;;;;;;;;;;5011320;28;20041;-77
2021/10/04 02:43:05;;;;;;;9.02;2.15;;;;;;;;;;5014133;28;20081;-77
2021/10/04 02:45:31;;;;;;;10.80;2.63;;;;;;;;;;5011521;28;20348;-77
2021/10/04 02:47:59;;;;;;;8.07;2.15;;;;;;;;;;5012429;28;20398;-77
2021/10/04 02:50:26;;;;;;;10.43;2.60;;;;;;;;;;5011973;28;20049;-77
2021/10/04 02:52:53;;;;;;;10.68;2.45;;;;;;;;;;5006956;28;20054;-77
2021/10/04 02:55:19;;;;;;;10.98;2.92;;;;;;;;;;4999454;28;20042;-76
2021/10/04 02:57:45;;;;;;;10.55;2.28;;;;;;;;;;4992975;28;20069;-77
2021/10/04 03:00:13;;;;;;;8.45;2.42;;;;;;;;;;4995703;28;20531;-77
2021/10/04 03:02:39;;;;;;;10.27;3.70;;;;;;;;;;5011737;28;20038;-77
2021/10/04 03:05:06;;;;;;;8.13;2.78;;;;;;;;;;5012889;28;20104;-77
2021/10/04 03:07:32;;;;;;;8.45;2.45;;;;;;;;;;4995881;28;20405;-77
2021/10/04 03:09:58;;;;;;;10.10;2.20;;;;;;;;;;4995546;28;20482;-77
2021/10/04 03:12:24;;;;;;;13.02;2.10;;;;;;;;;;4994846;28;20054;-77
2021/10/04 03:14:50;;;;;;;10.10;2.30;;;;;;;;;;4995628;28;20048;-77
2021/10/04 03:17:17;;;;;;;11.32;3.03;;;;;;;;;;5013090;28;20038;-77
2021/10/04 03:19:43;;;;;;;10.20;2.42;;;;;;;;;;5011987;28;20044;-77
2021/10/04 03:22:09;;;;;;;9.55;2.22;;;;;;;;;;5012031;28;20063;-77
2021/10/04 03:24:36;;;;;;;8.32;2.38;;;;;;;;;;4994396;28;20508;-76
2021/10/04 03:27:02;;;;;;;9.43;2.20;;;;;;;;;;4994346;28;20096;-77
2021/10/04 03:29:28;;;;;;;8.73;2.35;;;;;;;;;;5013349;28;20046;-77
2021/10/04 03:31:54;;;;;;;11.88;2.53;;;;;;;;;;4994697;28;20532;-77
2021/10/04 03:34:21;;;;;;;14.70;2.50;;;;;;;;;;4995044;28;20042;-77
2021/10/04 03:36:47;;;;;;;9.07;2.25;;;;;;;;;;4994738;28;20065;-77
2021/10/04 03:39:13;;;;;;;9.95;2.20;;;;;;;;;;5010036;28;20045;-77
2021/10/04 03:41:40;;;;;;;7.05;2.58;;;;;;;;;;4994261;28;20085;-77
2021/10/04 03:44:06;;;;;;;16.38;4.07;;;;;;;;;;4995046;28;20125;-77
2021/10/04 03:46:33;;;;;;;7.70;2.45;;;;;;;;;;5012899;28;20474;-77
2021/10/04 03:48:59;;;;;;;9.82;2.38;;;;;;;;;;5007741;28;20097;-76
2021/10/04 03:51:25;;;;;;;8.38;2.80;;;;;;;;;;4994411;28;20049;-77
2021/10/04 03:53:51;;;;;;;9.85;3.05;;;;;;;;;;4995030;28;20058;-77
2021/10/04 03:56:17;;;;;;;12.35;2.90;;;;;;;;;;4994137;28;20038;-77
2021/10/04 03:58:44;;;;;;;10.20;3.30;;;;;;;;;;4988771;28;20462;-77
2021/10/04 04:01:10;;;;;;;11.23;3.17;;;;;;;;;;4978695;28;20049;-77
2021/10/04 04:03:37;;;;;;;10.80;4.07;;;;;;;;;;4990738;28;20470;-77
2021/10/04 04:06:03;;;;;;;11.95;3.45;;;;;;;;;;4994112;28;20044;-77
2021/10/04 04:08:30;;;;;;;15.00;4.20;;;;;;;;;;4990313;28;20069;-77
2021/10/04 04:10:56;;;;;;;13.65;3.40;;;;;;;;;;5010203;28;20520;-76
2021/10/04 04:13:23;;;;;;;12.93;3.58;;;;;;;;;;4994396;28;20085;-77
2021/10/04 04:15:49;;;;;;;14.43;3.97;;;;;;;;;;4993122;28;20053;-76
2021/10/04 04:18:15;;;;;;;11.85;3.75;;;;;;;;;;4971727;28;20052;-77
2021/10/04 04:20:41;;;;;;;14.45;3.50;;;;;;;;;;4993524;28;20082;-77
2021/10/04 04:23:08;;;;;;;12.77;3.70;;;;;;;;;;5010397;28;20073;-77
2021/10/04 04:25:34;;;;;;;9.77;3.67;;;;;;;;;;4990084;28;20046;-77
2021/10/04 04:28:00;;;;;;;10.55;3.35;;;;;;;;;;4994058;28;20129;-77
2021/10/04 04:30:27;;;;;;;9.75;4.55;;;;;;;;;;4993094;28;20053;-77
2021/10/04 04:32:53;;;;;;;11.10;3.20;;;;;;;;;;4990046;28;20073;-77
2021/10/04 04:35:20;;;;;;;9.93;3.22;;;;;;;;;;5011830;28;20049;-77
2021/10/04 04:37:46;;;;;;;12.07;3.70;;;;;;;;;;5007342;28;20034;-77
2021/10/04 04:40:14;;;;;;;12.57;3.42;;;;;;;;;;4990078;28;20050;-77
2021/10/04 04:42:42;;;;;;;17.67;4.40;;;;;;;;;;5011521;28;20836;-77
2021/10/04 04:45:09;;;;;;;6.80;2.80;;;;;;;;;;5010008;28;20116;-77
2021/10/04 04:47:36;;;;;;;11.38;3.78;;;;;;;;;;4992108;28;20509;-76
2021/10/04 04:50:03;;;;;;;8.82;3.13;;;;;;;;;;4993896;28;20045;-77
2021/10/04 04:52:29;;;;;;;8.90;2.85;;;;;;;;;;5010955;28;20046;-77
2021/10/04 04:54:56;;;;;;;11.40;3.05;;;;;;;;;;4993239;28;20551;-77
2021/10/04 04:57:22;;;;;;;8.65;2.90;;;;;;;;;;5008309;28;20056;-77
2021/10/04 04:59:48;;;;;;;9.02;3.03;;;;;;;;;;4993764;28;20180;-77
2021/10/04 05:02:14;;;;;;;6.93;3.33;;;;;;;;;;4986703;28;20098;-76
2021/10/04 05:04:40;;;;;;;9.85;2.75;;;;;;;;;;4985471;28;20053;-77
2021/10/04 05:07:06;;;;;;;11.52;3.30;;;;;;;;;;5011284;28;20110;-76
2021/10/04 05:09:33;;;;;;;11.00;3.50;;;;;;;;;;4993176;28;20053;-77
2021/10/04 05:11:59;;;;;;;9.65;2.97;;;;;;;;;;4988925;28;20073;-77
2021/10/04 05:14:25;;;;;;;10.68;3.10;;;;;;;;;;4993232;28;20108;-80
2021/10/04 05:16:51;;;;;;;6.90;2.75;;;;;;;;;;4988717;28;20458;-77
2021/10/04 05:19:17;;;;;;;7.38;3.15;;;;;;;;;;4986475;28;20445;-77
2021/10/04 05:21:43;;;;;;;7.20;3.15;;;;;;;;;;4992859;28;20042;-77
2021/10/04 05:24:10;;;;;;;7.85;3.40;;;;;;;;;;4993573;28;20046;-77
2021/10/04 05:26:36;;;;;;;10.13;3.28;;;;;;;;;;4992059;28;20133;-77
2021/10/04 05:29:02;;;;;;;7.10;2.83;;;;;;;;;;4988338;28;20077;-77
2021/10/04 05:31:28;;;;;;;8.80;2.92;;;;;;;;;;4993297;28;20073;-77
2021/10/04 05:33:54;;;;;;;7.65;2.47;;;;;;;;;;4991952;28;20042;-77
2021/10/04 05:36:20;;;;;;;10.90;3.08;;;;;;;;;;4993155;28;20050;-77
2021/10/04 05:38:47;;;;;;;13.60;3.63;;;;;;;;;;4993481;28;20438;-77
2021/10/04 05:41:13;;;;;;;11.10;3.67;;;;;;;;;;4992798;28;20111;-77
2021/10/04 05:43:39;;;;;;;10.02;3.33;;;;;;;;;;4988997;28;20122;-77
2021/10/04 05:46:06;;;;;;;8.05;3.17;;;;;;;;;;4990408;28;20050;-76
2021/10/04 05:48:33;;;;;;;11.57;3.00;;;;;;;;;;5013158;28;20077;-83
2021/10/04 05:50:59;;;;;;;12.43;3.60;;;;;;;;;;4995650;28;20050;-76
2021/10/04 05:53:25;;;;;;;9.85;4.10;;;;;;;;;;4990950;28;20050;-76
2021/10/04 05:55:51;;;;;;;8.38;3.50;;;;;;;;;;4992020;28;20046;-76
2021/10/04 05:58:17;;;;;;;10.73;2.92;;;;;;;;;;5008160;28;20085;-76
2021/10/04 06:00:44;;;;;;;11.55;3.30;;;;;;;;;;5008937;28;20053;-76
2021/10/04 06:03:10;;;;;;;11.60;3.30;;;;;;;;;;5008088;28;20137;-77
2021/10/04 06:05:36;;;;;;;14.13;3.30;;;;;;;;;;5007018;28;20060;-76
2021/10/04 06:08:03;;;;;;;9.82;3.60;;;;;;;;;;5008306;28;20553;-76
2021/10/04 06:10:29;;;;;;;10.40;3.55;;;;;;;;;;5010099;28;20355;-76
2021/10/04 06:12:55;;;;;;;10.00;3.17;;;;;;;;;;5007255;28;20121;-76
2021/10/04 06:15:22;;;;;;;8.20;2.80;;;;;;;;;;5005636;28;20177;-77
2021/10/04 06:17:48;;;;;;;7.72;3.22;;;;;;;;;;5007732;28;20048;-77
2021/10/04 06:20:14;;;;;;;7.43;2.75;;;;;;;;;;5011147;28;20046;-77
2021/10/04 06:22:41;;;;;;;7.72;3.15;;;;;;;;;;5011181;28;20133;-78
2021/10/04 06:25:08;;;;;;;9.55;3.20;;;;;;;;;;5009980;28;20047;-79
2021/10/04 06:27:35;;;;;;;8.73;3.45;;;;;;;;;;5028092;28;20068;-78
2021/10/04 06:30:01;;;;;;;8.82;3.45;;;;;;;;;;5013458;28;20054;-78
2021/10/04 06:32:27;;;;;;;7.18;2.92;;;;;;;;;;5010852;28;20057;-76
2021/10/04 06:34:54;;;;;;;8.98;3.15;;;;;;;;;;5012845;28;20050;-78
2021/10/04 06:37:20;;;;;;;11.40;3.40;;;;;;;;;;5009894;28;20172;-75
2021/10/04 06:39:46;;;;;;;7.45;3.17;;;;;;;;;;5009855;28;20046;-76
2021/10/04 06:42:12;;;;;;;13.70;3.42;;;;;;;;;;5010293;28;20486;-75
2021/10/04 06:44:38;;;;;;;9.25;3.53;;;;;;;;;;5009611;28;20128;-72
2021/10/04 06:47:05;;;;;;;15.93;3.33;;;;;;;;;;5013450;28;20045;-72
2021/10/04 06:49:31;;;;;;;6.80;2.83;;;;;;;;;;5013784;28;20057;-72
2021/10/04 06:51:58;;;;;;;7.78;3.33;;;;;;;;;;5007833;28;20077;-72
2021/10/04 06:54:24;;;;;;;9.07;3.53;;;;;;;;;;5013362;28;20433;-72
2021/10/04 06:56:50;;;;;;;11.50;3.40;;;;;;;;;;5022632;28;20132;-73
2021/10/04 06:59:16;;;;;;;12.10;3.22;;;;;;;;;;5010944;28;20452;-73
2021/10/04 07:01:42;;;;;;;8.88;2.90;;;;;;;;;;5009634;28;20119;-72
2021/10/04 07:04:08;;;;;;;14.90;3.00;;;;;;;;;;4997829;28;20079;-72
2021/10/04 07:06:35;;;;;;;9.15;2.97;;;;;;;;;;5006042;28;20042;-72
2021/10/04 07:09:02;;;;;;;8.68;3.03;;;;;;;;;;5021428;28;20057;-72
2021/10/04 07:11:28;;;;;;;12.32;4.25;;;;;;;;;;5009903;28;20050;-73
2021/10/04 07:13:54;;;;;;;8.45;3.50;;;;;;;;;;5010293;28;20125;-72
2021/10/04 07:16:21;;;;;;;10.32;3.30;;;;;;;;;;5010545;28;20147;-73
2021/10/04 07:18:47;;;;;;;12.88;3.00;;;;;;;;;;5003049;28;20042;-72
2021/10/04 07:21:13;;;;;;;6.45;2.72;;;;;;;;;;5012095;28;20091;-72
2021/10/04 07:23:40;;;;;;;10.48;3.05;;;;;;;;;;4992776;28;20058;-72
2021/10/04 07:26:07;;;;;;;8.40;2.92;;;;;;;;;;5004297;28;20399;-72
2021/10/04 07:28:34;;;;;;;10.65;3.13;;;;;;;;;;5000097;28;20113;-72
2021/10/04 07:31:00;;;;;;;9.93;3.08;;;;;;;;;;5009937;28;20108;-72
2021/10/04 07:33:26;;;;;;;11.05;2.95;;;;;;;;;;5011337;28;20125;-73
2021/10/04 07:35:52;;;;;;;8.82;3.10;;;;;;;;;;5012190;28;20054;-73
2021/10/04 07:38:19;;;;;;;8.50;3.40;;;;;;;;;;5013715;28;20046;-73
2021/10/04 07:40:46;;;;;;;9.60;3.47;;;;;;;;;;5012694;28;20091;-72
2021/10/04 07:43:12;;;;;;;13.40;3.60;;;;;;;;;;4997881;28;20604;-73
2021/10/04 07:45:38;;;;;;;9.57;3.00;;;;;;;;;;5011940;28;20095;-72
2021/10/04 07:48:04;;;;;;;11.05;3.28;;;;;;;;;;5008692;28;20038;-72
2021/10/04 07:50:31;;;;;;;9.20;2.85;;;;;;;;;;5009405;28;20042;-73
2021/10/04 07:52:57;;;;;;;6.45;2.90;;;;;;;;;;5010290;28;20050;-73
2021/10/04 07:55:24;;;;;;;8.23;3.17;;;;;;;;;;5008725;28;20045;-73
2021/10/04 07:57:50;;;;;;;10.77;3.05;;;;;;;;;;5006399;28;20050;-73
2021/10/04 08:00:18;;;;;;;7.30;2.83;;;;;;;;;;5008378;28;20049;-73
2021/10/04 08:02:45;;;;;;;7.07;3.05;;;;;;;;;;5008257;28;20046;-73
2021/10/04 08:05:11;;;;;;;8.90;3.20;;;;;;;;;;5008937;28;20045;-72
2021/10/04 08:07:38;;;;;;;9.70;2.58;;;;;;;;;;5007895;28;20442;-72
2021/10/04 08:10:05;;;;;;;9.75;2.75;;;;;;;;;;5015412;28;20541;-73
2021/10/04 08:12:31;;;;;;;11.13;3.30;;;;;;;;;;5009192;28;20037;-72
2021/10/04 08:14:57;;;;;;;9.48;2.33;;;;;;;;;;5008750;28;20050;-73
2021/10/04 08:17:25;;;;;;;7.65;2.95;;;;;;;;;;5011516;28;20042;-73
2021/10/04 08:19:51;;;;;;;7.40;3.33;;;;;;;;;;5003833;28;20178;-72
2021/10/04 08:22:17;;;;;;;10.55;3.05;;;;;;;;;;5008120;28;20104;-72
2021/10/04 08:24:44;;;;;;;8.32;2.95;;;;;;;;;;5003154;28;20121;-72
2021/10/04 08:27:10;;;;;;;7.40;2.65;;;;;;;;;;5010791;28;20157;-71
2021/10/04 08:29:36;;;;;;;10.55;3.20;;;;;;;;;;5008386;28;20061;-72
2021/10/04 08:32:03;;;;;;;7.07;2.50;;;;;;;;;;5007771;28;20386;-72
2021/10/04 08:34:29;;;;;;;11.48;2.75;;;;;;;;;;5009385;28;20568;-72
2021/10/04 08:36:55;;;;;;;7.38;2.72;;;;;;;;;;5006427;28;20394;-73
2021/10/04 08:39:22;;;;;;;8.55;2.72;;;;;;;;;;5003808;28;20049;-72
2021/10/04 08:41:51;;;;;;;8.90;2.55;;;;;;;;;;4997639;28;20046;-72
2021/10/04 08:44:17;;;;;;;9.70;2.72;;;;;;;;;;5003457;28;20057;-72
2021/10/04 08:46:45;;;;;;;7.22;2.90;;;;;;;;;;5003481;28;20125;-72
2021/10/04 08:49:12;;;;;;;6.35;2.60;;;;;;;;;;5002057;28;20049;-72
2021/10/04 08:51:39;;;;;;;10.95;3.55;;;;;;;;;;5004985;28;20088;-72
2021/10/04 08:54:06;;;;;;;10.95;2.63;;;;;;;;;;5000788;28;20084;-76
2021/10/04 08:56:32;;;;;;;9.77;3.30;;;;;;;;;;5006313;28;20053;-73
2021/10/04 08:58:59;;;;;;;9.07;2.53;;;;;;;;;;5009675;28;20042;-72
2021/10/04 09:01:25;;;;;;;8.02;2.53;;;;;;;;;;5008708;28;20097;-73
2021/10/04 09:03:53;;;;;;;8.05;2.20;;;;;;;;;;5014250;28;20038;-72
2021/10/04 09:06:27;;;;;;;7.25;2.70;;;;;;;;;;5025528;28;20141;-72
2021/10/04 09:08:54;;;;;;;7.32;2.58;;;;;;;;;;5008532;28;20160;-73
2021/10/04 09:11:36;;;;;;;9.85;3.17;;;;;;;;;;5008345;28;20045;-72
2021/10/04 09:14:08;;;;;;;7.72;2.40;;;;;;;;;;5007229;28;20054;-73
2021/10/04 09:16:51;;;;;;;7.15;2.30;;;;;;;;;;5024761;28;20085;-72
2021/10/04 09:19:18;;;;;;;4.70;1.70;;;;;;;;;;5006358;28;20082;-73
2021/10/04 09:22:02;;;;;;;9.38;2.42;;;;;;;;;;5007403;28;20557;-72
2021/10/04 09:24:28;;;;;;;8.23;2.03;;;;;;;;;;5023674;28;20386;-72
2021/10/04 09:26:54;;;;;;;12.55;2.15;;;;;;;;;;5008725;28;20038;-73
2021/10/04 09:29:20;;;;;;;7.78;1.95;;;;;;;;;;5007882;28;20096;-72
2021/10/04 09:31:47;;;;;;;9.10;1.88;;;;;;;;;;5007694;28;20046;-73
2021/10/04 09:34:16;;;;;;;15.98;2.60;;;;;;;;;;5008156;28;20041;-72
2021/10/04 09:36:44;;;;;;;10.10;2.28;;;;;;;;;;5024581;28;20049;-72
2021/10/04 09:39:12;;;;;;;8.60;1.77;;;;;;;;;;5005776;28;20145;-72
2021/10/04 09:41:55;;;;;;;12.95;2.63;;;;;;;;;;5004904;28;20494;-72
2021/10/04 09:44:21;;;;;;;8.32;2.28;;;;;;;;;;5023516;28;20068;-72
2021/10/04 09:46:47;;;;;;;9.02;2.08;;;;;;;;;;5008758;28;20053;-73
2021/10/04 09:49:13;;;;;;;8.85;2.03;;;;;;;;;;5005840;28;20057;-73
2021/10/04 09:51:54;;;;;;;12.18;2.20;;;;;;;;;;5003174;28;20050;-72
2021/10/04 09:54:20;;;;;;;7.90;1.75;;;;;;;;;;5021339;28;20057;-72
2021/10/04 09:56:46;;;;;;;7.18;1.70;;;;;;;;;;5008472;28;20080;-73
2021/10/04 09:59:13;;;;;;;11.88;2.58;;;;;;;;;;5002676;28;20065;-72
2021/10/04 10:01:39;;;;;;;5.43;1.83;;;;;;;;;;5006555;28;20092;-73
2021/10/04 10:04:06;;;;;;;7.13;1.50;;;;;;;;;;5006019;28;20431;-73
2021/10/04 10:06:33;;;;;;;10.63;1.77;;;;;;;;;;5003878;28;20405;-73
2021/10/04 10:09:00;;;;;;;7.15;1.75;;;;;;;;;;5006819;28;20401;-73
2021/10/04 10:11:31;;;;;;;8.55;2.00;;;;;;;;;;5001399;28;20537;-73
2021/10/04 10:13:57;;;;;;;6.75;2.05;;;;;;;;;;5009608;28;20057;-73
2021/10/04 10:16:28;;;;;;;6.05;2.17;;;;;;;;;;5007229;28;20288;-73
2021/10/04 10:19:01;;;;;;;8.05;1.85;;;;;;;;;;5006000;28;20034;-74
2021/10/04 10:21:28;;;;;;;11.43;1.80;;;;;;;;;;5006940;28;20057;-73
2021/10/04 10:23:57;;;;;;;6.75;2.05;;;;;;;;;;5007489;28;20128;-73
2021/10/04 10:26:29;;;;;;;6.30;1.50;;;;;;;;;;5007406;28;20076;-73
2021/10/04 10:29:12;;;;;;;6.80;1.90;;;;;;;;;;5006998;28;20049;-74
2021/10/04 10:31:49;;;;;;;11.70;1.95;;;;;;;;;;5009842;28;20045;-74
2021/10/04 10:34:25;;;;;;;10.02;2.28;;;;;;;;;;5010356;28;20050;-74
2021/10/04 10:37:07;;;;;;;10.70;1.83;;;;;;;;;;5010589;28;20045;-73
2021/10/04 10:39:36;;;;;;;7.72;1.65;;;;;;;;;;5011292;28;20056;-75
2021/10/04 10:42:10;;;;;;;6.78;1.50;;;;;;;;;;5010864;28;20084;-74
2021/10/04 10:44:56;;;;;;;13.07;2.42;;;;;;;;;;5013435;28;20049;-74
2021/10/04 10:47:35;;;;;;;9.60;2.35;;;;;;;;;;5008267;28;20048;-73
2021/10/04 10:50:01;;;;;;;7.15;1.40;;;;;;;;;;5012000;28;20052;-73
2021/10/04 10:52:29;;;;;;;8.18;1.45;;;;;;;;;;5012771;28;20041;-73
2021/10/04 10:54:55;;;;;;;9.40;1.80;;;;;;;;;;5011195;28;20056;-74
2021/10/04 10:57:22;;;;;;;6.88;1.75;;;;;;;;;;5008910;28;20513;-74
2021/10/04 11:00:16;;;;;;;8.50;1.50;;;;;;;;;;5012303;28;20133;-73
2021/10/04 11:02:55;;;;;;;11.05;1.70;;;;;;;;;;5012191;28;20045;-73
2021/10/04 11:05:36;;;;;;;9.60;1.80;;;;;;;;;;5010502;28;20089;-73
2021/10/04 11:08:03;;;;;;;6.82;1.55;;;;;;;;;;5008961;28;20057;-73
2021/10/04 11:10:29;;;;;;;8.27;1.67;;;;;;;;;;5009756;28;20041;-73
2021/10/04 11:13:08;;;;;;;8.07;1.95;;;;;;;;;;5014191;28;20050;-73
2021/10/04 11:15:35;;;;;;;6.90;1.70;;;;;;;;;;5010103;28;20052;-73
2021/10/04 11:18:01;;;;;;;8.77;2.03;;;;;;;;;;5006444;28;20058;-73
2021/10/04 11:20:27;;;;;;;11.82;1.70;;;;;;;;;;5011204;28;20431;-73
2021/10/04 11:23:05;;;;;;;5.65;1.65;;;;;;;;;;5009815;28;20049;-73
2021/10/04 11:25:40;;;;;;;9.13;2.25;;;;;;;;;;5010109;28;20418;-73
2021/10/04 11:28:07;;;;;;;8.07;1.83;;;;;;;;;;5006103;28;20362;-73
2021/10/04 11:30:52;;;;;;;8.32;2.00;;;;;;;;;;5011003;28;20061;-73
2021/10/04 11:33:18;;;;;;;7.82;1.45;;;;;;;;;;5010068;28;20058;-73
2021/10/04 11:36:00;;;;;;;8.55;1.75;;;;;;;;;;5010843;28;20464;-73
2021/10/04 11:38:28;;;;;;;7.95;1.40;;;;;;;;;;5008844;28;20073;-73
2021/10/04 11:40:54;;;;;;;7.43;1.27;;;;;;;;;;5007210;28;20044;-74
2021/10/04 11:43:21;;;;;;;7.40;1.30;;;;;;;;;;5011884;28;20033;-74
2021/10/04 11:45:47;;;;;;;10.13;1.60;;;;;;;;;;5010287;28;20045;-74
2021/10/04 11:48:30;;;;;;;8.30;1.50;;;;;;;;;;5010654;28;20038;-74
2021/10/04 11:50:57;;;;;;;6.13;1.30;;;;;;;;;;5010688;28;20552;-73
2021/10/04 11:53:23;;;;;;;7.35;1.58;;;;;;;;;;5010320;28;20084;-74
2021/10/04 11:55:58;;;;;;;6.40;1.35;;;;;;;;;;5012252;28;20123;-74
2021/10/04 11:58:24;;;;;;;7.40;1.70;;;;;;;;;;5009944;28;20050;-74
2021/10/04 12:00:51;;;;;;;7.35;1.40;;;;;;;;;;5008956;28;20528;-73
2021/10/04 12:03:27;;;;;;;8.35;1.50;;;;;;;;;;5006749;28;20046;-74
2021/10/04 12:05:55;;;;;;;9.02;1.67;;;;;;;;;;5011195;28;20049;-74
2021/10/04 12:08:23;;;;;;;7.85;1.40;;;;;;;;;;5008298;28;20100;-73
2021/10/04 12:10:58;;;;;;;7.15;1.45;;;;;;;;;;4994299;28;20056;-73
2021/10/04 12:13:25;;;;;;;8.98;2.05;;;;;;;;;;5010114;28;20128;-74
2021/10/04 12:15:54;;;;;;;6.15;1.08;;;;;;;;;;5009886;28;20053;-73
2021/10/04 12:18:22;;;;;;;4.63;1.33;;;;;;;;;;5009447;28;20533;-73
2021/10/04 12:20:49;;;;;;;8.82;1.42;;;;;;;;;;5009106;28;20050;-73
2021/10/04 12:23:15;;;;;;;11.68;2.30;;;;;;;;;;5025894;28;20378;-73
2021/10/04 12:25:42;;;;;;;5.53;1.40;;;;;;;;;;5008712;28;20103;-73
2021/10/04 12:28:09;;;;;;;9.52;1.30;;;;;;;;;;5007207;28;20485;-74
2021/10/04 12:30:40;;;;;;;6.57;1.15;;;;;;;;;;5008739;28;20054;-73
2021/10/04 12:33:07;;;;;;;6.93;1.83;;;;;;;;;;4993216;28;20504;-73
2021/10/04 12:35:33;;;;;;;7.07;2.00;;;;;;;;;;4990092;28;20053;-74
2021/10/04 12:38:03;;;;;;;7.95;1.67;;;;;;;;;;5006606;28;20566;-78
2021/10/04 12:40:31;;;;;;;5.07;1.23;;;;;;;;;;5006752;28;20398;-73
2021/10/04 12:43:06;;;;;;;7.22;1.80;;;;;;;;;;5008489;28;20053;-73
2021/10/04 12:45:33;;;;;;;8.05;1.40;;;;;;;;;;5009424;28;20054;-73
2021/10/04 12:48:02;;;;;;;5.15;1.02;;;;;;;;;;5007404;28;20045;-73
2021/10/04 12:50:30;;;;;;;5.05;1.48;;;;;;;;;;5022106;28;20073;-73
2021/10/04 12:53:14;;;;;;;8.07;1.30;;;;;;;;;;5005941;28;20124;-73
2021/10/04 12:55:45;;;;;;;5.97;1.30;;;;;;;;;;4996814;28;20050;-73
2021/10/04 12:58:13;;;;;;;7.60;1.58;;;;;;;;;;5007972;28;20049;-73
2021/10/04 13:00:39;;;;;;;7.68;1.60;;;;;;;;;;5005655;28;20042;-73
2021/10/04 13:03:05;;;;;;;9.68;1.80;;;;;;;;;;5005647;28;20052;-73
2021/10/04 13:05:31;;;;;;;6.32;1.40;;;;;;;;;;5001686;28;20050;-73
2021/10/04 13:07:58;;;;;;;8.55;2.08;;;;;;;;;;5005836;28;20042;-73
2021/10/04 13:10:24;;;;;;;11.00;1.40;;;;;;;;;;5004950;28;20204;-73
2021/10/04 13:12:51;;;;;;;7.70;1.40;;;;;;;;;;5024208;28;20741;-73
2021/10/04 13:15:17;;;;;;;10.27;1.63;;;;;;;;;;5015625;28;20046;-73
2021/10/04 13:17:44;;;;;;;8.07;1.40;;;;;;;;;;5006602;28;20061;-73
2021/10/04 13:20:10;;;;;;;6.55;1.30;;;;;;;;;;5008959;28;20050;-73
2021/10/04 13:22:37;;;;;;;13.15;1.75;;;;;;;;;;5008201;28;20128;-73
2021/10/04 13:25:03;;;;;;;10.00;1.45;;;;;;;;;;5007978;28;20513;-73
2021/10/04 13:27:30;;;;;;;9.60;1.50;;;;;;;;;;5008703;28;20037;-73
2021/10/04 13:29:56;;;;;;;10.23;1.70;;;;;;;;;;5011522;28;20046;-74
2021/10/04 13:32:22;;;;;;;10.68;1.60;;;;;;;;;;4992673;28;20042;-74
2021/10/04 13:34:49;;;;;;;8.60;1.40;;;;;;;;;;5009486;28;20131;-74
2021/10/04 13:37:18;;;;;;;9.57;1.80;;;;;;;;;;5004950;28;20050;-73
2021/10/04 13:39:44;;;;;;;8.57;1.25;;;;;;;;;;5005663;28;20086;-73
2021/10/04 13:42:11;;;;;;;12.15;1.80;;;;;;;;;;5006242;28;20379;-73
2021/10/04 13:44:37;;;;;;;8.23;1.70;;;;;;;;;;5003308;28;20390;-73
2021/10/04 13:47:03;;;;;;;14.65;1.88;;;;;;;;;;5007567;28;20064;-73
2021/10/04 13:49:29;;;;;;;9.05;1.83;;;;;;;;;;5009208;28;20073;-73
2021/10/04 13:51:56;;;;;;;12.05;1.85;;;;;;;;;;5008256;28;20061;-73
2021/10/04 13:54:22;;;;;;;8.35;2.08;;;;;;;;;;5008069;28;20052;-73
2021/10/04 13:56:49;;;;;;;6.55;1.30;;;;;;;;;;5004460;28;20054;-73
2021/10/04 13:59:15;;;;;;;10.70;1.55;;;;;;;;;;4973032;28;20056;-73
2021/10/04 14:01:43;;;;;;;7.55;1.70;;;;;;;;;;4982245;28;20061;-73
2021/10/04 14:04:10;;;;;;;7.25;1.40;;;;;;;;;;4985538;28;20467;-73
2021/10/04 14:06:36;;;;;;;9.50;1.75;;;;;;;;;;4986975;28;20050;-73
2021/10/04 14:09:03;;;;;;;10.88;2.22;;;;;;;;;;4992991;28;20053;-73
2021/10/04 14:11:29;;;;;;;9.07;1.98;;;;;;;;;;4982216;28;20084;-72
2021/10/04 14:13:55;;;;;;;11.38;2.55;;;;;;;;;;4979834;28;20054;-73
2021/10/04 14:16:22;;;;;;;14.88;1.90;;;;;;;;;;4994902;28;20216;-73
2021/10/04 14:18:48;;;;;;;11.63;1.77;;;;;;;;;;4978784;28;20482;-73
2021/10/04 14:21:14;;;;;;;9.38;1.90;;;;;;;;;;4989687;28;20681;-73
2021/10/04 14:23:40;;;;;;;6.38;1.80;;;;;;;;;;5004780;28;20169;-73
2021/10/04 14:26:07;;;;;;;9.32;1.70;;;;;;;;;;4995376;28;20053;-73
2021/10/04 14:28:33;;;;;;;7.53;1.30;;;;;;;;;;4989394;28;20034;-73
2021/10/04 14:30:59;;;;;;;6.38;1.48;;;;;;;;;;4988957;28;20049;-73
2021/10/04 14:33:25;;;;;;;8.73;1.50;;;;;;;;;;4976392;28;20100;-73
2021/10/04 14:35:52;;;;;;;10.95;1.50;;;;;;;;;;4959749;28;20093;-73
2021/10/04 14:38:19;;;;;;;8.85;1.65;;;;;;;;;;4974457;28;20066;-72
2021/10/04 14:40:46;;;;;;;6.82;1.83;;;;;;;;;;4979242;28;20050;-73